Time;durP1;ratioP1;P1;durP2;ratioP2;P2;SDS_P1;SDS_P2;PMS_P1;PMS_P2;Temp;Humidity;BMP_temperature;BMP_pressure;BME280_temperature;BME280_humidity;BME280_pressure;Samples;Min_cycle;Max_cycle;Signal;HPM_P1;HPM_P2
2021/03/25 00:01:12;;;;;;;97.78;43.45;;;;;;;8.30;67.64;102039.41;4993600;28;20050;-72
2021/03/25 00:03:38;;;;;;;85.70;42.00;;;;;;;8.23;68.19;102039.00;4996969;28;20069;-72
2021/03/25 00:06:05;;;;;;;95.78;42.45;;;;;;;8.29;67.90;102045.56;4995277;28;20048;-73
2021/03/25 00:08:33;;;;;;;85.18;42.50;;;;;;;8.35;67.90;102036.47;4995387;28;20366;-74
2021/03/25 00:10:59;;;;;;;82.38;39.53;;;;;;;8.37;67.52;102031.97;4998354;28;20650;-74
2021/03/25 00:13:25;;;;;;;90.97;43.13;;;;;;;8.44;67.57;102031.50;4982490;28;20058;-73
2021/03/25 00:15:52;;;;;;;87.47;40.50;;;;;;;8.43;66.31;102023.78;4983589;28;20046;-73
2021/03/25 00:18:18;;;;;;;81.63;41.72;;;;;;;8.44;67.32;102015.81;4991968;28;20064;-74
2021/03/25 00:20:45;;;;;;;87.70;41.70;;;;;;;8.49;66.83;102018.97;4985091;28;20085;-74
2021/03/25 00:23:12;;;;;;;87.38;40.47;;;;;;;8.54;66.66;102025.66;4980286;28;20085;-74
2021/03/25 00:25:40;;;;;;;88.40;40.50;;;;;;;8.56;67.26;102023.78;4974804;28;20496;-74
2021/03/25 00:28:08;;;;;;;80.65;40.85;;;;;;;8.56;66.93;102021.16;4985137;28;20140;-72
2021/03/25 00:30:35;;;;;;;88.22;42.67;;;;;;;8.49;66.84;102018.97;4979215;28;20058;-73
2021/03/25 00:33:04;;;;;;;91.68;41.80;;;;;;;8.42;67.80;102020.31;4982692;28;20120;-73
2021/03/25 00:35:31;;;;;;;90.78;41.55;;;;;;;8.38;67.52;102026.66;4978924;28;20401;-72
2021/03/25 00:37:58;;;;;;;85.75;42.13;;;;;;;8.35;67.48;102023.41;4981922;28;20544;-72
2021/03/25 00:40:40;;;;;;;85.55;40.42;;;;;;;8.28;68.19;102010.75;4970669;28;20221;-72
2021/03/25 00:43:09;;;;;;;81.32;39.92;;;;;;;8.31;67.76;102013.16;4983697;28;20050;-73
2021/03/25 00:45:40;;;;;;;82.15;41.08;;;;;;;8.35;67.81;102011.19;4993491;28;20046;-73
2021/03/25 00:48:06;;;;;;;83.32;40.17;;;;;;;8.39;67.02;102012.66;4986703;28;20057;-73
2021/03/25 00:50:39;;;;;;;89.25;43.63;;;;;;;8.42;67.58;102014.25;4992253;28;20482;-73
2021/03/25 00:53:07;;;;;;;101.05;45.47;;;;;;;8.41;67.76;102005.59;4973791;28;20058;-73
2021/03/25 00:55:33;;;;;;;96.90;42.73;;;;;;;8.45;67.25;102007.03;4984933;28;20047;-72
2021/03/25 00:57:59;;;;;;;91.88;41.45;;;;;;;8.40;67.83;102003.03;4973977;28;20058;-72
2021/03/25 01:00:29;;;;;;;78.80;40.80;;;;;;;8.35;67.91;102007.72;4984631;28;20336;-72
2021/03/25 01:02:55;;;;;;;84.65;40.35;;;;;;;8.23;68.73;102010.22;4978503;28;20058;-72
2021/03/25 01:05:23;;;;;;;76.55;39.90;;;;;;;8.19;68.64;102013.97;4984314;28;20535;-73
2021/03/25 01:07:50;;;;;;;92.28;42.33;;;;;;;8.15;68.98;102012.50;4981756;28;20050;-74
2021/03/25 01:10:21;;;;;;;84.40;41.88;;;;;;;8.17;68.37;102013.22;4997017;28;20049;-74
2021/03/25 01:12:48;;;;;;;81.22;39.10;;;;;;;8.18;68.12;102016.69;5007227;28;20096;-73
2021/03/25 01:15:15;;;;;;;93.97;42.17;;;;;;;8.18;68.39;102016.69;5000012;28;20464;-74
2021/03/25 01:17:47;;;;;;;82.40;41.22;;;;;;;8.17;68.42;102022.84;4995629;28;20053;-74
2021/03/25 01:20:20;;;;;;;87.80;41.35;;;;;;;8.15;68.50;102022.13;5000410;28;20123;-74
2021/03/25 01:22:46;;;;;;;89.05;41.63;;;;;;;8.08;68.84;102013.84;5007248;28;20054;-73
2021/03/25 01:25:13;;;;;;;90.00;42.00;;;;;;;8.05;69.32;102006.22;5002130;28;20485;-74
2021/03/25 01:27:39;;;;;;;95.78;44.78;;;;;;;8.06;69.32;102002.66;5001073;28;20550;-73
2021/03/25 01:30:06;;;;;;;87.95;43.78;;;;;;;8.14;69.03;102007.38;4996636;28;20054;-74
2021/03/25 01:32:32;;;;;;;98.05;43.30;;;;;;;8.13;69.04;102009.16;4999834;28;20061;-74
2021/03/25 01:34:58;;;;;;;87.30;42.83;;;;;;;8.10;69.04;102006.75;5006570;28;20602;-73
2021/03/25 01:37:24;;;;;;;92.05;42.63;;;;;;;8.00;69.44;102000.47;5016923;28;20076;-73
2021/03/25 01:39:51;;;;;;;88.80;41.15;;;;;;;8.01;69.48;102004.72;5002246;28;20084;-74
2021/03/25 01:42:29;;;;;;;92.70;44.50;;;;;;;7.99;69.82;102004.00;4982185;28;20168;-73
2021/03/25 01:44:55;;;;;;;98.75;43.17;;;;;;;8.00;69.58;101995.22;4997872;28;20098;-73
2021/03/25 01:47:21;;;;;;;97.38;44.70;;;;;;;8.06;69.52;102000.06;5001535;28;20116;-73
2021/03/25 01:49:48;;;;;;;88.45;43.60;;;;;;;8.07;69.37;102002.53;4988802;28;20054;-73
2021/03/25 01:52:22;;;;;;;81.07;42.10;;;;;;;8.14;69.07;101997.75;4981414;28;20053;-74
2021/03/25 01:55:08;;;;;;;101.25;45.03;;;;;;;8.17;69.27;101999.31;4987860;28;20138;-73
2021/03/25 01:57:57;;;;;;;89.35;43.83;;;;;;;8.20;68.02;101997.34;4986701;28;20053;-73
2021/03/25 02:00:45;;;;;;;84.10;41.22;;;;;;;8.24;68.99;101998.81;5004167;28;20112;-74
2021/03/25 02:03:44;;;;;;;86.53;42.05;;;;;;;8.23;68.28;101997.16;4997178;28;20859;-73
2021/03/25 02:06:28;;;;;;;88.55;41.28;;;;;;;8.22;68.91;101999.88;4987507;28;20050;-74
2021/03/25 02:09:02;;;;;;;91.97;42.03;;;;;;;8.23;68.23;102001.53;4980788;28;20109;-73
2021/03/25 02:12:07;;;;;;;92.03;44.50;;;;;;;8.26;68.70;101996.13;4982680;28;20062;-74
2021/03/25 02:14:42;;;;;;;94.40;42.65;;;;;;;8.26;68.82;101988.28;4991091;28;20081;-73
2021/03/25 02:17:31;;;;;;;93.00;42.80;;;;;;;8.29;68.40;101994.13;4972448;28;20046;-74
2021/03/25 02:20:31;;;;;;;97.13;45.67;;;;;;;8.35;68.62;101994.66;5000623;28;20062;-73
2021/03/25 02:23:25;;;;;;;95.47;45.08;;;;;;;8.36;68.61;101988.50;4979648;28;20460;-73
2021/03/25 02:26:07;;;;;;;105.68;48.10;;;;;;;8.36;69.10;101996.34;5000572;28;20449;-74
2021/03/25 02:29:04;;;;;;;106.13;48.03;;;;;;;8.34;68.67;101988.59;5006516;28;20456;-74
2021/03/25 02:31:43;;;;;;;106.82;47.78;;;;;;;8.32;68.34;101990.47;4988283;28;20111;-74
2021/03/25 02:34:18;;;;;;;100.07;46.05;;;;;;;8.28;68.73;101987.22;4987416;28;20058;-75
2021/03/25 02:36:58;;;;;;;107.90;47.28;;;;;;;8.24;69.03;101980.53;4985250;28;20176;-74
2021/03/25 02:39:31;;;;;;;107.07;47.22;;;;;;;8.26;69.05;101986.47;5006676;28;20108;-75
2021/03/25 02:42:11;;;;;;;100.80;46.10;;;;;;;8.35;69.01;101994.66;4972861;28;20062;-74
2021/03/25 02:44:47;;;;;;;94.15;46.65;;;;;;;8.36;69.14;101994.56;4985757;28;20042;-74
2021/03/25 02:47:13;;;;;;;101.63;47.83;;;;;;;8.37;68.93;101990.16;4983247;28;20054;-74
2021/03/25 02:49:49;;;;;;;101.35;45.80;;;;;;;8.42;69.38;101990.72;4977506;28;20055;-74
2021/03/25 02:52:21;;;;;;;102.07;46.97;;;;;;;8.43;68.53;101993.25;4986434;28;20069;-73
2021/03/25 02:54:48;;;;;;;107.03;45.95;;;;;;;8.48;68.21;101985.06;4982629;28;20411;-74
2021/03/25 02:57:30;;;;;;;98.43;45.42;;;;;;;8.51;68.48;101987.50;4986807;28;20175;-73
2021/03/25 03:00:01;;;;;;;104.15;46.78;;;;;;;8.48;69.18;101992.91;4977665;28;20046;-74
2021/03/25 03:02:40;;;;;;;108.20;47.97;;;;;;;8.47;69.01;101991.25;4992966;28;20065;-73
2021/03/25 03:05:17;;;;;;;110.38;49.05;;;;;;;8.43;69.07;101989.78;4979559;28;20740;-73
2021/03/25 03:07:50;;;;;;;109.20;48.22;;;;;;;8.42;69.10;101993.34;4998835;28;20081;-73
2021/03/25 03:10:21;;;;;;;105.78;48.20;;;;;;;8.35;69.60;101986.81;4998452;28;20081;-74
2021/03/25 03:12:50;;;;;;;101.35;46.13;;;;;;;8.28;69.45;101984.59;5005665;28;20089;-73
2021/03/25 03:15:25;;;;;;;107.15;47.30;;;;;;;8.34;69.58;101995.59;4996153;28;20140;-73
2021/03/25 03:18:00;;;;;;;99.10;47.30;;;;;;;8.37;69.53;101998.84;4988600;28;20050;-73
2021/03/25 03:20:40;;;;;;;102.35;47.97;;;;;;;8.36;69.58;101989.31;4992752;28;20924;-73
2021/03/25 03:23:08;;;;;;;100.18;46.97;;;;;;;8.43;68.99;101984.56;4989757;28;20541;-73
2021/03/25 03:25:36;;;;;;;102.38;47.08;;;;;;;8.43;68.77;101984.56;5005548;28;20991;-74
2021/03/25 03:28:24;;;;;;;96.55;45.90;;;;;;;8.47;69.01;101991.25;4995371;28;20131;-73
2021/03/25 03:30:57;;;;;;;107.88;48.15;;;;;;;8.46;68.90;101979.94;5001124;28;20050;-74
2021/03/25 03:33:31;;;;;;;110.50;49.15;;;;;;;8.47;68.90;101975.56;4990042;28;20186;-73
2021/03/25 03:36:00;;;;;;;107.90;47.83;;;;;;;8.51;68.73;101974.41;4988946;28;20042;-73
2021/03/25 03:38:35;;;;;;;102.03;47.35;;;;;;;8.57;68.69;101978.41;4989950;28;20050;-73
2021/03/25 03:41:02;;;;;;;113.57;49.72;;;;;;;8.56;68.59;101982.75;4987073;28;20494;-73
2021/03/25 03:43:29;;;;;;;103.57;47.25;;;;;;;8.56;68.67;101977.53;4974119;28;20112;-73
2021/03/25 03:46:04;;;;;;;102.18;47.53;;;;;;;8.56;68.38;101980.16;4982671;28;20140;-73
2021/03/25 03:48:44;;;;;;;101.22;47.22;;;;;;;8.52;68.80;101981.31;4966927;28;20881;-73
2021/03/25 03:51:23;;;;;;;112.05;49.10;;;;;;;8.47;69.24;101975.56;4966205;28;20058;-74
2021/03/25 03:53:50;;;;;;;;;;;;;;;8.45;69.42;101973.06;4972398;28;20108;-73
2021/03/25 03:56:37;;;;;;;106.90;46.83;;;;;;;8.48;69.74;101974.59;4973322;28;19930;-74
2021/03/25 03:59:10;;;;;;;104.43;48.90;;;;;;;8.49;69.24;101971.91;4984640;28;20129;-73
2021/03/25 04:01:53;;;;;;;110.00;47.47;;;;;;;8.50;68.51;101970.13;4979461;28;20054;-73
2021/03/25 04:04:28;;;;;;;111.47;48.28;;;;;;;8.52;68.87;101973.47;4972603;28;20145;-73
2021/03/25 04:07:00;;;;;;;104.97;47.22;;;;;;;8.55;69.05;101968.03;4978800;28;20632;-73
2021/03/25 04:09:47;;;;;;;113.22;49.50;;;;;;;8.61;68.45;101970.22;4981932;28;20210;-73
2021/03/25 04:12:21;;;;;;;105.10;47.13;;;;;;;8.61;68.11;101970.22;4964667;28;20108;-73
2021/03/25 04:14:51;;;;;;;116.93;50.47;;;;;;;8.59;68.80;101966.88;4982241;28;20085;-72
2021/03/25 04:17:27;;;;;;;102.38;46.70;;;;;;;8.58;68.92;101962.56;4981300;28;20577;-73
2021/03/25 04:19:57;;;;;;;103.43;47.90;;;;;;;8.58;68.82;101959.97;4999622;28;20053;-73
2021/03/25 04:22:31;;;;;;;103.15;46.47;;;;;;;8.58;68.85;101957.34;4977653;28;20062;-73
2021/03/25 04:25:14;;;;;;;102.13;47.58;;;;;;;8.59;68.61;101952.97;4986293;28;20054;-73
2021/03/25 04:27:44;;;;;;;102.32;47.38;;;;;;;8.55;69.65;101952.34;4986071;28;20359;-72
2021/03/25 04:30:12;;;;;;;107.63;48.35;;;;;;;8.54;69.59;101962.91;4992083;28;20501;-72
2021/03/25 04:32:38;;;;;;;108.35;48.03;;;;;;;8.55;69.64;101964.59;4980225;28;20059;-72
2021/03/25 04:35:06;;;;;;;106.10;48.90;;;;;;;8.55;69.24;101967.19;4977724;28;20062;-72
2021/03/25 04:37:32;;;;;;;112.70;50.13;;;;;;;8.56;69.43;101968.84;4992257;28;20104;-72
2021/03/25 04:40:01;;;;;;;111.85;50.25;;;;;;;8.62;69.31;101971.88;4979479;28;20054;-72
2021/03/25 04:42:28;;;;;;;110.03;49.05;;;;;;;8.63;68.93;101972.75;5002912;28;20054;-72
2021/03/25 04:45:07;;;;;;;105.97;49.33;;;;;;;8.62;69.05;101977.09;4987890;28;20045;-72
2021/03/25 04:47:41;;;;;;;103.28;48.88;;;;;;;8.60;69.11;101973.75;4994034;28;20050;-72
2021/03/25 04:50:26;;;;;;;116.35;49.00;;;;;;;8.59;69.23;101971.28;4979241;28;20050;-72
2021/03/25 04:53:21;;;;;;;112.43;49.13;;;;;;;8.52;69.53;101966.44;4983283;28;20062;-71
2021/03/25 04:55:48;;;;;;;109.70;49.85;;;;;;;8.55;69.30;101961.97;4981544;28;20060;-72
2021/03/25 04:58:25;;;;;;;114.95;50.17;;;;;;;8.60;69.03;101962.47;4988571;28;20090;-72
2021/03/25 05:00:52;;;;;;;116.25;51.88;;;;;;;8.60;69.05;101962.47;4983371;28;20779;-72
2021/03/25 05:03:23;;;;;;;122.95;52.17;;;;;;;8.64;68.75;101969.16;4970007;28;20057;-71
2021/03/25 05:05:54;;;;;;;115.20;51.17;;;;;;;8.62;68.86;101964.03;4984267;28;20054;-72
2021/03/25 05:08:25;;;;;;;125.13;54.13;;;;;;;8.61;68.58;101962.38;4982141;28;20069;-72
2021/03/25 05:11:09;;;;;;;129.13;54.50;;;;;;;8.60;68.86;101958.06;4988334;28;20058;-72
2021/03/25 05:13:42;;;;;;;130.60;55.80;;;;;;;8.56;68.94;101961.84;4981996;28;20053;-72
2021/03/25 05:16:38;;;;;;;131.35;54.38;;;;;;;8.55;68.97;101956.75;4988263;28;20054;-72
2021/03/25 05:19:16;;;;;;;129.10;55.70;;;;;;;8.51;68.68;101963.97;4991861;28;20148;-72
2021/03/25 05:22:08;;;;;;;128.38;56.20;;;;;;;8.51;68.88;101961.34;5007178;28;20720;-72
2021/03/25 05:24:44;;;;;;;123.55;55.60;;;;;;;8.51;68.62;101964.78;5000973;28;20050;-74
2021/03/25 05:27:52;;;;;;;132.32;55.55;;;;;;;8.51;68.95;101956.94;4995256;28;20112;-72
2021/03/25 05:30:29;;;;;;;116.30;51.75;;;;;;;8.47;68.74;101949.41;4980802;28;20105;-72
2021/03/25 05:33:00;;;;;;;123.27;54.87;;;;;;;8.44;68.91;101949.63;4997759;28;20101;-72
2021/03/25 05:35:32;;;;;;;135.05;54.30;;;;;;;8.42;68.63;101954.13;4991051;28;20950;-74
2021/03/25 05:37:58;;;;;;;133.48;56.05;;;;;;;8.32;69.13;101946.03;4990425;28;20054;-72
2021/03/25 05:40:28;;;;;;;134.85;54.83;;;;;;;8.27;69.43;101948.09;4981740;28;20061;-72
2021/03/25 05:43:26;;;;;;;127.35;56.65;;;;;;;8.26;69.56;101947.28;4985186;28;20133;-72
2021/03/25 05:46:05;;;;;;;124.88;54.75;;;;;;;8.25;69.03;101943.00;4973791;28;20050;-73
2021/03/25 05:48:44;;;;;;;123.90;53.35;;;;;;;8.27;69.40;101955.94;4975418;28;20477;-73
2021/03/25 05:51:40;;;;;;;120.88;54.08;;;;;;;8.25;69.21;101949.97;4980134;28;20058;-72
2021/03/25 05:54:22;;;;;;;126.28;55.22;;;;;;;8.23;69.21;101951.88;4986312;28;20047;-72
2021/03/25 05:57:25;;;;;;;122.13;52.60;;;;;;;8.22;68.54;101952.81;4980598;28;20078;-72
2021/03/25 06:00:08;;;;;;;125.75;53.80;;;;;;;8.20;68.95;101950.31;4983617;28;20409;-72
2021/03/25 06:02:55;;;;;;;124.65;53.85;;;;;;;8.16;69.25;101948.00;4967164;28;20055;-72
2021/03/25 06:05:21;;;;;;;120.03;55.42;;;;;;;8.14;69.07;101949.91;4982380;28;20080;-73
2021/03/25 06:08:02;;;;;;;116.45;54.50;;;;;;;8.15;68.91;101956.78;4964146;28;20051;-73
2021/03/25 06:10:35;;;;;;;121.13;55.15;;;;;;;8.07;69.26;101965.13;4988201;28;20059;-73
2021/03/25 06:13:25;;;;;;;127.28;54.85;;;;;;;8.01;69.37;101976.00;4962493;28;20674;-73
2021/03/25 06:16:16;;;;;;;128.77;54.42;;;;;;;7.97;69.76;101969.28;4972547;28;20050;-73
2021/03/25 06:18:56;;;;;;;115.53;51.80;;;;;;;7.95;69.94;101968.56;4989108;28;20056;-73
2021/03/25 06:21:43;;;;;;;134.48;56.47;;;;;;;7.96;69.87;101967.59;4975663;28;20054;-73
2021/03/25 06:24:28;;;;;;;129.50;54.17;;;;;;;7.96;69.93;101973.69;4978884;28;20062;-73
2021/03/25 06:27:03;;;;;;;127.25;54.60;;;;;;;7.96;69.62;101965.84;4967199;28;20057;-73
2021/03/25 06:29:34;;;;;;;135.20;56.63;;;;;;;7.99;69.75;101980.47;4973549;28;20298;-73
2021/03/25 06:32:20;;;;;;;144.73;59.15;;;;;;;7.99;69.97;101983.91;4991876;28;20069;-73
2021/03/25 06:34:53;;;;;;;129.23;54.90;;;;;;;8.02;70.46;101991.56;4977302;28;20145;-73
2021/03/25 06:37:23;;;;;;;132.73;55.80;;;;;;;8.02;70.72;101986.34;4984672;28;20165;-73
2021/03/25 06:40:10;;;;;;;133.45;58.72;;;;;;;7.95;71.17;101992.06;4980970;28;20054;-73
2021/03/25 06:42:50;;;;;;;147.77;61.40;;;;;;;7.95;71.04;101987.69;4974274;28;20061;-74
2021/03/25 06:45:21;;;;;;;137.68;57.92;;;;;;;8.02;71.09;102007.25;4975205;28;20050;-74
2021/03/25 06:48:05;;;;;;;145.35;61.05;;;;;;;7.99;71.53;101994.38;4972513;28;20494;-73
2021/03/25 06:50:36;;;;;;;138.52;57.67;;;;;;;8.00;71.73;101993.44;4978594;28;20054;-74
2021/03/25 06:53:18;;;;;;;161.07;62.17;;;;;;;8.07;71.76;101991.25;4972892;28;20102;-74
2021/03/25 06:55:45;;;;;;;143.05;59.20;;;;;;;8.08;71.83;101985.94;4968592;28;20050;-74
2021/03/25 06:58:18;;;;;;;149.50;59.40;;;;;;;8.07;72.04;101983.41;4964601;28;20137;-74
2021/03/25 07:00:53;;;;;;;138.48;57.88;;;;;;;8.07;72.17;101975.59;4971584;28;20050;-74
2021/03/25 07:03:20;;;;;;;147.27;57.97;;;;;;;8.03;72.35;101963.66;4976979;28;20765;-73
2021/03/25 07:05:48;;;;;;;147.00;59.40;;;;;;;8.12;72.25;101979.56;4970702;28;20059;-73
2021/03/25 07:08:14;;;;;;;139.48;58.85;;;;;;;8.14;72.01;101976.84;4968787;28;20059;-72
2021/03/25 07:10:43;;;;;;;155.90;59.42;;;;;;;8.07;72.78;101976.41;4973289;28;20132;-72
2021/03/25 07:13:18;;;;;;;155.75;62.15;;;;;;;8.09;72.40;101974.53;4985826;28;20054;-72
2021/03/25 07:15:53;;;;;;;149.93;58.47;;;;;;;8.11;72.48;101958.75;4975162;28;20054;-73
2021/03/25 07:18:34;;;;;;;140.37;57.50;;;;;;;8.14;72.38;101970.81;4982199;28;20144;-73
2021/03/25 07:21:21;;;;;;;140.35;58.33;;;;;;;8.11;72.14;101975.28;4972881;28;20051;-73
2021/03/25 07:23:47;;;;;;;150.25;59.42;;;;;;;8.17;72.28;101974.03;4997717;28;20081;-73
2021/03/25 07:26:21;;;;;;;134.90;57.53;;;;;;;8.17;71.92;101971.41;4985976;28;20058;-73
2021/03/25 07:29:11;;;;;;;153.75;58.35;;;;;;;8.20;72.31;101989.50;4993753;28;20054;-73
2021/03/25 07:31:51;;;;;;;149.70;61.10;;;;;;;8.12;72.92;101992.63;4978438;28;20054;-72
2021/03/25 07:34:30;;;;;;;157.95;64.18;;;;;;;8.06;73.02;102003.50;4986329;28;20113;-73
2021/03/25 07:36:58;;;;;;;151.35;60.40;;;;;;;8.12;72.99;102010.94;4989843;28;20050;-73
2021/03/25 07:39:35;;;;;;;163.23;62.75;;;;;;;8.16;73.56;102013.34;5006243;28;20054;-75
2021/03/25 07:42:01;;;;;;;158.18;63.88;;;;;;;8.16;73.11;102016.78;4971159;28;20065;-72
2021/03/25 07:44:32;;;;;;;140.25;60.22;;;;;;;8.17;73.18;102021.06;4984210;28;20092;-72
2021/03/25 07:47:01;;;;;;;149.57;62.40;;;;;;;8.20;73.44;102022.66;4982360;28;20101;-73
2021/03/25 07:49:30;;;;;;;144.70;60.90;;;;;;;8.32;72.80;102019.22;4977956;28;20788;-73
2021/03/25 07:52:04;;;;;;;161.10;61.42;;;;;;;8.34;73.55;102019.13;4985673;28;20050;-72
2021/03/25 07:54:40;;;;;;;163.30;61.60;;;;;;;8.42;73.36;102022.94;4979749;28;20068;-74
2021/03/25 07:57:09;;;;;;;158.00;59.22;;;;;;;8.46;73.13;102032.25;4999342;28;20050;-74
2021/03/25 07:59:42;;;;;;;138.30;57.55;;;;;;;8.42;72.55;102030.78;4999369;28;20089;-74
2021/03/25 08:02:28;;;;;;;148.48;61.60;;;;;;;8.44;72.48;102036.72;4980974;28;20117;-72
2021/03/25 08:04:56;;;;;;;144.10;60.70;;;;;;;8.47;72.80;102033.09;4981048;28;20510;-72
2021/03/25 08:07:24;;;;;;;140.57;60.43;;;;;;;8.52;72.68;102034.44;5005453;28;20112;-72
2021/03/25 08:09:57;;;;;;;153.27;63.03;;;;;;;8.51;72.50;102017.09;4997234;28;20054;-72
2021/03/25 08:12:29;;;;;;;148.50;62.15;;;;;;;8.66;72.76;102033.53;4977138;28;20059;-71
2021/03/25 08:15:06;;;;;;;136.45;59.63;;;;;;;8.65;72.20;102028.41;4958156;28;20054;-72
2021/03/25 08:17:44;;;;;;;139.02;59.55;;;;;;;8.79;72.35;102024.84;4980473;28;20060;-72
2021/03/25 08:20:25;;;;;;;140.00;57.60;;;;;;;8.83;72.39;102027.13;4991713;28;20078;-71
2021/03/25 08:23:16;;;;;;;142.90;57.45;;;;;;;9.03;72.12;102030.97;4997739;28;20093;-73
2021/03/25 08:25:49;;;;;;;135.75;56.60;;;;;;;9.03;71.43;102028.34;4982898;28;20552;-72
2021/03/25 08:28:30;;;;;;;120.03;55.33;;;;;;;9.03;72.02;102035.38;4976174;28;20421;-72
2021/03/25 08:31:08;;;;;;;145.43;59.90;;;;;;;9.09;71.58;102034.94;4985047;28;20113;-72
2021/03/25 08:34:01;;;;;;;124.85;55.60;;;;;;;9.14;71.76;102026.78;4987624;28;20050;-72
2021/03/25 08:36:48;;;;;;;137.65;56.70;;;;;;;9.22;71.18;102017.44;5002687;28;20061;-72
2021/03/25 08:39:28;;;;;;;129.98;53.65;;;;;;;9.29;71.36;102010.84;4989530;28;20062;-72
2021/03/25 08:42:02;;;;;;;130.63;56.35;;;;;;;9.43;70.99;102012.47;4980133;28;20113;-72
2021/03/25 08:44:41;;;;;;;132.30;54.53;;;;;;;9.44;70.82;102014.13;4973302;28;20516;-72
2021/03/25 08:47:33;;;;;;;123.30;52.95;;;;;;;9.66;71.09;102005.59;4984537;28;20054;-72
2021/03/25 08:50:53;;;;;;;124.18;53.20;;;;;;;9.70;70.73;102007.03;4978730;28;20155;-72
2021/03/25 08:53:42;;;;;;;126.78;54.88;;;;;;;9.83;70.97;102011.38;4958054;28;20050;-72
2021/03/25 08:56:42;;;;;;;117.97;50.15;;;;;;;9.99;70.07;102016.31;4978997;28;20066;-72
2021/03/25 08:59:20;;;;;;;118.22;50.22;;;;;;;10.09;69.12;102018.16;4974789;28;20098;-73
2021/03/25 09:02:02;;;;;;;110.10;48.13;;;;;;;10.19;68.59;102010.44;4984542;28;20572;-73
2021/03/25 09:04:34;;;;;;;109.10;47.85;;;;;;;10.38;67.93;102028.28;4978317;28;20070;-72
2021/03/25 09:07:03;;;;;;;105.45;48.72;;;;;;;10.45;67.32;102036.53;4984483;28;20050;-72
2021/03/25 09:09:37;;;;;;;107.03;44.75;;;;;;;10.50;67.18;102026.50;4983812;28;20120;-72
2021/03/25 09:12:12;;;;;;;107.03;47.50;;;;;;;10.68;66.40;102034.75;4965531;28;20062;-72
2021/03/25 09:14:38;;;;;;;115.03;48.75;;;;;;;10.73;66.51;102029.19;4983800;28;20069;-71
2021/03/25 09:17:13;;;;;;;111.70;49.00;;;;;;;10.72;66.84;102032.75;4992270;28;20054;-71
2021/03/25 09:19:51;;;;;;;115.65;51.88;;;;;;;10.78;66.59;102029.63;4986154;28;20375;-71
2021/03/25 09:22:44;;;;;;;100.97;47.95;;;;;;;10.97;66.20;102029.06;4971584;28;20053;-72
2021/03/25 09:25:13;;;;;;;105.45;48.70;;;;;;;11.02;65.86;102027.75;4991898;28;20058;-72
2021/03/25 09:27:59;;;;;;;109.55;48.58;;;;;;;11.28;65.07;102022.25;4995631;28;20108;-72
2021/03/25 09:30:33;;;;;;;99.25;49.30;;;;;;;11.39;64.30;102024.84;4995742;28;20057;-71
2021/03/25 09:33:37;;;;;;;105.07;48.92;;;;;;;11.70;63.98;102030.25;4981093;28;20054;-71
2021/03/25 09:36:26;;;;;;;103.32;49.47;;;;;;;11.68;63.14;102021.66;4983303;28;20147;-71
2021/03/25 09:38:58;;;;;;;105.30;47.42;;;;;;;11.56;63.21;102028.75;4986483;28;20136;-72
2021/03/25 09:41:24;;;;;;;106.80;48.67;;;;;;;11.60;63.65;102024.06;4994971;28;20054;-72
2021/03/25 09:44:09;;;;;;;106.70;50.30;;;;;;;11.48;63.18;102015.38;4987910;28;20732;-72
2021/03/25 09:46:40;;;;;;;106.15;48.38;;;;;;;11.63;64.23;102016.78;4990100;28;20046;-71
2021/03/25 09:49:18;;;;;;;109.72;48.38;;;;;;;11.63;63.63;102024.66;4987046;28;20061;-72
2021/03/25 09:51:46;;;;;;;105.32;48.50;;;;;;;11.84;64.01;102019.47;4993383;28;20070;-73
2021/03/25 09:54:27;;;;;;;98.35;46.15;;;;;;;11.95;62.75;102013.34;4988935;28;20054;-72
2021/03/25 09:57:37;;;;;;;108.03;50.30;;;;;;;11.94;62.13;102018.75;4988148;28;20045;-72
2021/03/25 10:00:21;;;;;;;101.80;44.65;;;;;;;12.06;62.85;102018.56;4982673;28;20124;-73
2021/03/25 10:02:53;;;;;;;101.88;44.80;;;;;;;11.97;62.25;102016.69;4991517;28;20054;-71
2021/03/25 10:05:27;;;;;;;94.25;43.38;;;;;;;11.97;61.95;102018.50;4995843;28;20062;-71
2021/03/25 10:08:08;;;;;;;87.75;42.50;;;;;;;12.06;62.69;102020.38;4995830;28;20050;-73
2021/03/25 10:10:35;;;;;;;80.97;42.03;;;;;;;12.04;62.57;102014.41;4991435;28;20091;-73
2021/03/25 10:13:03;;;;;;;82.78;41.30;;;;;;;12.08;62.09;102018.44;4990171;28;20042;-73
2021/03/25 10:15:42;;;;;;;84.03;42.85;;;;;;;12.31;62.74;102005.16;4990497;28;20054;-73
2021/03/25 10:18:17;;;;;;;85.55;40.90;;;;;;;12.50;61.64;102005.28;4995612;28;20112;-73
2021/03/25 10:20:47;;;;;;;74.20;37.88;;;;;;;12.38;61.41;102019.47;4990858;28;20133;-73
2021/03/25 10:23:37;;;;;;;71.88;37.45;;;;;;;12.55;61.78;102013.63;4989203;28;20065;-73
2021/03/25 10:26:16;;;;;;;76.38;38.42;;;;;;;12.62;61.52;102013.94;4992465;28;20150;-73
2021/03/25 10:28:46;;;;;;;69.85;36.33;;;;;;;12.64;60.88;102012.84;4976409;28;20065;-74
2021/03/25 10:31:18;;;;;;;72.82;34.47;;;;;;;12.81;60.61;102010.56;4986177;28;20394;-73
2021/03/25 10:33:44;;;;;;;83.95;37.75;;;;;;;12.94;60.89;102013.00;4981022;28;20080;-73
2021/03/25 10:36:18;;;;;;;72.43;35.28;;;;;;;12.95;60.50;102002.28;5001998;28;20112;-73
2021/03/25 10:38:44;;;;;;;64.30;33.75;;;;;;;12.85;60.20;102001.44;5000385;28;20057;-73
2021/03/25 10:41:19;;;;;;;77.82;36.33;;;;;;;12.97;60.18;101999.53;4983458;28;20092;-73
2021/03/25 10:43:49;;;;;;;74.45;36.50;;;;;;;12.98;59.94;101988.06;4970858;28;20061;-73
2021/03/25 10:46:39;;;;;;;66.68;35.40;;;;;;;13.02;59.64;102005.25;4980178;28;20065;-73
2021/03/25 10:49:13;;;;;;;77.97;35.88;;;;;;;12.90;59.52;101998.38;4967384;28;20110;-73
2021/03/25 10:51:42;;;;;;;75.32;40.03;;;;;;;12.98;60.83;101998.59;4963162;28;20457;-75
2021/03/25 10:54:33;;;;;;;83.57;40.38;;;;;;;13.19;60.37;101996.72;4990692;28;20502;-74
2021/03/25 10:57:28;;;;;;;83.60;38.03;;;;;;;13.28;60.96;101987.16;4975331;28;20529;-73
2021/03/25 11:00:06;;;;;;;73.55;37.28;;;;;;;13.57;60.96;101992.50;4986153;28;20135;-72
2021/03/25 11:02:43;;;;;;;63.75;35.97;;;;;;;13.87;60.35;101992.50;4981669;28;20062;-72
2021/03/25 11:05:27;;;;;;;73.28;33.38;;;;;;;14.18;59.93;101993.19;4986839;28;20068;-72
2021/03/25 11:08:02;;;;;;;71.18;34.63;;;;;;;14.18;57.96;101987.91;4975163;28;20084;-72
2021/03/25 11:10:31;;;;;;;66.25;32.80;;;;;;;14.14;58.28;101989.16;4974969;28;20112;-73
2021/03/25 11:13:12;;;;;;;72.65;38.55;;;;;;;13.89;58.15;101995.84;4980337;28;20065;-72
2021/03/25 11:15:54;;;;;;;70.22;37.75;;;;;;;13.96;59.47;101989.88;4975030;28;20160;-72
2021/03/25 11:18:45;;;;;;;72.68;38.17;;;;;;;13.70;59.38;101994.88;4979608;28;20706;-72
2021/03/25 11:21:20;;;;;;;73.50;39.40;;;;;;;13.54;59.91;101986.66;4977774;28;20129;-73
2021/03/25 11:23:46;;;;;;;70.93;38.80;;;;;;;13.77;61.68;101987.22;4978762;28;20058;-72
2021/03/25 11:26:16;;;;;;;66.70;37.63;;;;;;;13.77;61.36;101989.88;4984792;28;20429;-72
2021/03/25 11:28:43;;;;;;;61.13;33.65;;;;;;;13.65;60.00;101984.72;4980612;28;20176;-72
2021/03/25 11:31:31;;;;;;;68.10;35.42;;;;;;;13.68;60.50;101990.69;4986409;28;20112;-72
2021/03/25 11:33:58;;;;;;;58.03;33.10;;;;;;;13.65;59.82;101991.81;4975892;28;20069;-72
2021/03/25 11:36:59;;;;;;;56.72;32.63;;;;;;;13.55;60.29;101990.97;4983480;28;20046;-72
2021/03/25 11:39:30;;;;;;;57.67;30.58;;;;;;;13.39;60.60;101994.16;4977602;28;20477;-72
2021/03/25 11:42:03;;;;;;;51.10;31.10;;;;;;;13.25;61.19;101992.72;4984300;28;20065;-74
2021/03/25 11:44:38;;;;;;;49.25;27.85;;;;;;;13.00;61.73;101992.22;4999582;28;20050;-72
2021/03/25 11:47:20;;;;;;;49.10;28.42;;;;;;;13.08;62.85;101996.81;4975395;28;20058;-73
2021/03/25 11:49:46;;;;;;;46.95;28.88;;;;;;;13.09;63.68;101995.00;4993454;28;20050;-73